sensor_id;sensor_type;location;lat;lon;timestamp;temperature;humidity
62555;DHT22;48610;52.144;8.624;2023-04-06T00:00:20;3.40;99.90
62555;DHT22;48610;52.144;8.624;2023-04-06T00:03:21;3.10;99.90
62555;DHT22;48610;52.144;8.624;2023-04-06T00:06:22;3.00;99.90
62555;DHT22;48610;52.144;8.624;2023-04-06T00:09:22;3.20;99.90
62555;DHT22;48610;52.144;8.624;2023-04-06T00:12:23;3.50;99.90
62555;DHT22;48610;52.144;8.624;2023-04-06T00:15:23;3.80;99.90
62555;DHT22;48610;52.144;8.624;2023-04-06T00:18:24;4.00;99.90
62555;DHT22;48610;52.144;8.624;2023-04-06T00:21:25;4.10;99.90
62555;DHT22;48610;52.144;8.624;2023-04-06T00:24:26;3.70;99.90
62555;DHT22;48610;52.144;8.624;2023-04-06T00:27:26;3.00;99.90
62555;DHT22;48610;52.144;8.624;2023-04-06T00:30:27;2.70;99.90
62555;DHT22;48610;52.144;8.624;2023-04-06T00:33:27;2.60;99.90
62555;DHT22;48610;52.144;8.624;2023-04-06T00:36:28;2.30;99.90
62555;DHT22;48610;52.144;8.624;2023-04-06T00:39:29;2.20;99.90
62555;DHT22;48610;52.144;8.624;2023-04-06T00:42:29;2.20;99.90
62555;DHT22;48610;52.144;8.624;2023-04-06T00:45:30;2.50;99.90
62555;DHT22;48610;52.144;8.624;2023-04-06T00:48:31;2.80;99.90
62555;DHT22;48610;52.144;8.624;2023-04-06T00:51:31;2.50;99.90
62555;DHT22;48610;52.144;8.624;2023-04-06T00:54:32;2.50;99.90
62555;DHT22;48610;52.144;8.624;2023-04-06T00:57:32;2.60;99.90
62555;DHT22;48610;52.144;8.624;2023-04-06T01:00:33;2.80;99.90
62555;DHT22;48610;52.144;8.624;2023-04-06T01:03:34;2.80;99.90
62555;DHT22;48610;52.144;8.624;2023-04-06T02:33:41;4.00;99.90
62555;DHT22;48610;52.144;8.624;2023-04-06T02:36:41;4.00;99.90
62555;DHT22;48610;52.144;8.624;2023-04-06T02:39:42;4.00;99.90
62555;DHT22;48610;52.144;8.624;2023-04-06T02:42:42;4.00;99.90
62555;DHT22;48610;52.144;8.624;2023-04-06T02:45:43;4.00;99.90
62555;DHT22;48610;52.144;8.624;2023-04-06T02:48:43;4.10;99.90
62555;DHT22;48610;52.144;8.624;2023-04-06T02:51:44;4.00;99.90
62555;DHT22;48610;52.144;8.624;2023-04-06T02:54:44;4.10;99.90
62555;DHT22;48610;52.144;8.624;2023-04-06T02:57:45;4.10;99.90
62555;DHT22;48610;52.144;8.624;2023-04-06T03:00:46;4.20;99.90
62555;DHT22;48610;52.144;8.624;2023-04-06T03:03:46;4.10;99.90
62555;DHT22;48610;52.144;8.624;2023-04-06T03:06:47;4.20;99.70
62555;DHT22;48610;52.144;8.624;2023-04-06T03:09:47;4.30;99.70
62555;DHT22;48610;52.144;8.624;2023-04-06T03:12:48;4.40;99.70
62555;DHT22;48610;52.144;8.624;2023-04-06T03:15:48;4.40;99.50
62555;DHT22;48610;52.144;8.624;2023-04-06T03:18:49;4.20;99.70
62555;DHT22;48610;52.144;8.624;2023-04-06T03:21:49;4.10;99.70
62555;DHT22;48610;52.144;8.624;2023-04-06T03:24:50;4.20;99.60
62555;DHT22;48610;52.144;8.624;2023-04-06T03:27:51;4.30;99.60
62555;DHT22;48610;52.144;8.624;2023-04-06T03:30:51;4.30;99.00
62555;DHT22;48610;52.144;8.624;2023-04-06T03:33:52;4.20;99.30
62555;DHT22;48610;52.144;8.624;2023-04-06T03:36:52;4.20;99.10
62555;DHT22;48610;52.144;8.624;2023-04-06T03:39:53;4.20;99.20
62555;DHT22;48610;52.144;8.624;2023-04-06T03:42:53;4.30;99.00
62555;DHT22;48610;52.144;8.624;2023-04-06T03:45:54;4.40;98.80
62555;DHT22;48610;52.144;8.624;2023-04-06T03:48:55;4.30;98.80
62555;DHT22;48610;52.144;8.624;2023-04-06T03:51:56;4.20;98.80
62555;DHT22;48610;52.144;8.624;2023-04-06T03:54:56;4.30;99.00
62555;DHT22;48610;52.144;8.624;2023-04-06T03:57:57;4.20;98.90
62555;DHT22;48610;52.144;8.624;2023-04-06T04:00:57;4.40;98.80
62555;DHT22;48610;52.144;8.624;2023-04-06T04:03:58;4.30;98.70
62555;DHT22;48610;52.144;8.624;2023-04-06T04:06:58;4.30;98.80
62555;DHT22;48610;52.144;8.624;2023-04-06T04:09:59;4.20;99.30
62555;DHT22;48610;52.144;8.624;2023-04-06T04:13:00;4.30;99.00
62555;DHT22;48610;52.144;8.624;2023-04-06T04:16:00;4.20;99.20
62555;DHT22;48610;52.144;8.624;2023-04-06T04:19:01;4.20;98.90
62555;DHT22;48610;52.144;8.624;2023-04-06T04:22:01;4.10;99.20
62555;DHT22;48610;52.144;8.624;2023-04-06T04:25:05;4.20;99.10
62555;DHT22;48610;52.144;8.624;2023-04-06T04:28:06;4.20;99.30
62555;DHT22;48610;52.144;8.624;2023-04-06T04:31:06;4.20;99.00
62555;DHT22;48610;52.144;8.624;2023-04-06T04:34:07;4.20;99.00
62555;DHT22;48610;52.144;8.624;2023-04-06T04:37:07;4.10;99.40
62555;DHT22;48610;52.144;8.624;2023-04-06T04:40:08;4.20;99.10
62555;DHT22;48610;52.144;8.624;2023-04-06T04:43:09;4.20;99.10
62555;DHT22;48610;52.144;8.624;2023-04-06T04:46:10;4.40;98.70
62555;DHT22;48610;52.144;8.624;2023-04-06T04:49:10;4.40;98.90
62555;DHT22;48610;52.144;8.624;2023-04-06T04:52:11;4.20;99.10
62555;DHT22;48610;52.144;8.624;2023-04-06T04:55:11;4.20;99.10
62555;DHT22;48610;52.144;8.624;2023-04-06T04:58:12;4.20;99.20
62555;DHT22;48610;52.144;8.624;2023-04-06T05:01:16;4.20;99.10
62555;DHT22;48610;52.144;8.624;2023-04-06T05:04:17;4.20;99.00
62555;DHT22;48610;52.144;8.624;2023-04-06T05:07:18;4.40;99.00
62555;DHT22;48610;52.144;8.624;2023-04-06T05:10:19;4.30;98.90
62555;DHT22;48610;52.144;8.624;2023-04-06T05:13:19;4.10;99.40
62555;DHT22;48610;52.144;8.624;2023-04-06T05:16:20;4.10;99.50
62555;DHT22;48610;52.144;8.624;2023-04-06T05:19:21;4.20;99.50
62555;DHT22;48610;52.144;8.624;2023-04-06T05:22:21;4.30;99.40
62555;DHT22;48610;52.144;8.624;2023-04-06T05:25:22;4.20;99.30
62555;DHT22;48610;52.144;8.624;2023-04-06T05:28:23;4.30;99.10
62555;DHT22;48610;52.144;8.624;2023-04-06T05:31:23;4.40;99.40
62555;DHT22;48610;52.144;8.624;2023-04-06T05:34:24;4.40;99.40
62555;DHT22;48610;52.144;8.624;2023-04-06T05:37:24;4.40;99.30
62555;DHT22;48610;52.144;8.624;2023-04-06T05:40:25;4.30;99.50
62555;DHT22;48610;52.144;8.624;2023-04-06T05:43:26;4.50;99.60
62555;DHT22;48610;52.144;8.624;2023-04-06T05:46:26;4.50;99.20
62555;DHT22;48610;52.144;8.624;2023-04-06T05:49:27;4.50;99.10
62555;DHT22;48610;52.144;8.624;2023-04-06T05:52:28;4.50;99.50
62555;DHT22;48610;52.144;8.624;2023-04-06T05:55:28;4.70;99.60
62555;DHT22;48610;52.144;8.624;2023-04-06T05:58:29;4.80;99.40
62555;DHT22;48610;52.144;8.624;2023-04-06T06:01:30;4.80;99.90
62555;DHT22;48610;52.144;8.624;2023-04-06T06:04:31;4.50;99.90
62555;DHT22;48610;52.144;8.624;2023-04-06T06:07:31;4.50;99.90
62555;DHT22;48610;52.144;8.624;2023-04-06T06:10:32;4.50;99.90
62555;DHT22;48610;52.144;8.624;2023-04-06T06:13:32;4.40;99.90
62555;DHT22;48610;52.144;8.624;2023-04-06T06:16:33;4.40;99.90
62555;DHT22;48610;52.144;8.624;2023-04-06T06:19:34;4.10;99.90
62555;DHT22;48610;52.144;8.624;2023-04-06T06:22:34;4.10;99.90
62555;DHT22;48610;52.144;8.624;2023-04-06T06:25:35;3.90;99.90
62555;DHT22;48610;52.144;8.624;2023-04-06T06:28:35;3.90;99.90
62555;DHT22;48610;52.144;8.624;2023-04-06T06:31:36;4.10;99.90
62555;DHT22;48610;52.144;8.624;2023-04-06T06:34:37;4.20;99.90
62555;DHT22;48610;52.144;8.624;2023-04-06T06:37:37;4.30;99.90
62555;DHT22;48610;52.144;8.624;2023-04-06T06:40:38;4.30;99.90
62555;DHT22;48610;52.144;8.624;2023-04-06T06:43:38;4.40;99.90
62555;DHT22;48610;52.144;8.624;2023-04-06T06:46:39;4.40;99.90
62555;DHT22;48610;52.144;8.624;2023-04-06T06:49:39;4.60;99.90
62555;DHT22;48610;52.144;8.624;2023-04-06T06:52:40;4.90;99.90
62555;DHT22;48610;52.144;8.624;2023-04-06T06:55:41;5.00;99.90
62555;DHT22;48610;52.144;8.624;2023-04-06T06:58:44;5.10;99.90
62555;DHT22;48610;52.144;8.624;2023-04-06T07:01:45;5.10;99.90
62555;DHT22;48610;52.144;8.624;2023-04-06T07:04:48;5.20;99.90
62555;DHT22;48610;52.144;8.624;2023-04-06T07:07:49;5.30;99.90
62555;DHT22;48610;52.144;8.624;2023-04-06T07:10:51;5.60;99.90
62555;DHT22;48610;52.144;8.624;2023-04-06T07:14:01;5.70;99.90
62555;DHT22;48610;52.144;8.624;2023-04-06T07:17:01;5.70;99.90
62555;DHT22;48610;52.144;8.624;2023-04-06T07:20:02;6.10;99.90
62555;DHT22;48610;52.144;8.624;2023-04-06T07:23:03;6.20;99.00
62555;DHT22;48610;52.144;8.624;2023-04-06T07:26:03;6.50;99.90
62555;DHT22;48610;52.144;8.624;2023-04-06T07:29:04;6.60;99.90
62555;DHT22;48610;52.144;8.624;2023-04-06T07:32:04;6.50;99.00
62555;DHT22;48610;52.144;8.624;2023-04-06T07:35:05;6.60;99.90
62555;DHT22;48610;52.144;8.624;2023-04-06T07:38:06;6.90;99.90
62555;DHT22;48610;52.144;8.624;2023-04-06T07:41:06;6.90;96.60
62555;DHT22;48610;52.144;8.624;2023-04-06T07:44:07;7.10;96.50
62555;DHT22;48610;52.144;8.624;2023-04-06T07:47:07;7.30;96.60
62555;DHT22;48610;52.144;8.624;2023-04-06T07:50:08;7.10;96.70
62555;DHT22;48610;52.144;8.624;2023-04-06T07:53:09;7.00;96.80
62555;DHT22;48610;52.144;8.624;2023-04-06T07:56:10;7.10;96.70
62555;DHT22;48610;52.144;8.624;2023-04-06T07:59:10;7.50;96.60
62555;DHT22;48610;52.144;8.624;2023-04-06T08:02:11;7.30;95.80
62555;DHT22;48610;52.144;8.624;2023-04-06T08:05:12;7.60;94.50
62555;DHT22;48610;52.144;8.624;2023-04-06T08:08:13;7.90;96.40
62555;DHT22;48610;52.144;8.624;2023-04-06T08:11:13;7.90;95.10
62555;DHT22;48610;52.144;8.624;2023-04-06T08:14:14;8.00;94.90
62555;DHT22;48610;52.144;8.624;2023-04-06T08:17:16;8.00;95.80
62555;DHT22;48610;52.144;8.624;2023-04-06T08:20:17;8.20;96.70
62555;DHT22;48610;52.144;8.624;2023-04-06T08:23:17;8.30;98.10
62555;DHT22;48610;52.144;8.624;2023-04-06T08:26:18;8.50;95.00
62555;DHT22;48610;52.144;8.624;2023-04-06T08:29:19;8.50;94.60
62555;DHT22;48610;52.144;8.624;2023-04-06T08:32:19;8.70;94.40
62555;DHT22;48610;52.144;8.624;2023-04-06T08:35:20;8.90;95.30
62555;DHT22;48610;52.144;8.624;2023-04-06T08:38:21;8.90;94.00
62555;DHT22;48610;52.144;8.624;2023-04-06T08:41:21;9.20;94.30
62555;DHT22;48610;52.144;8.624;2023-04-06T08:44:22;9.10;94.00
62555;DHT22;48610;52.144;8.624;2023-04-06T08:47:23;9.20;94.70
62555;DHT22;48610;52.144;8.624;2023-04-06T08:50:24;9.30;93.30
62555;DHT22;48610;52.144;8.624;2023-04-06T08:53:25;9.10;94.80
62555;DHT22;48610;52.144;8.624;2023-04-06T08:56:27;9.40;93.80
62555;DHT22;48610;52.144;8.624;2023-04-06T08:59:27;9.60;92.50
62555;DHT22;48610;52.144;8.624;2023-04-06T09:02:28;9.80;90.40
62555;DHT22;48610;52.144;8.624;2023-04-06T09:05:29;10.00;91.80
62555;DHT22;48610;52.144;8.624;2023-04-06T09:08:30;10.20;89.30
62555;DHT22;48610;52.144;8.624;2023-04-06T09:11:48;10.40;90.70
62555;DHT22;48610;52.144;8.624;2023-04-06T09:14:50;10.40;86.40
62555;DHT22;48610;52.144;8.624;2023-04-06T09:17:50;10.40;89.60
62555;DHT22;48610;52.144;8.624;2023-04-06T09:21:02;10.70;87.70
62555;DHT22;48610;52.144;8.624;2023-04-06T09:24:03;10.90;90.00
62555;DHT22;48610;52.144;8.624;2023-04-06T09:27:04;11.00;89.20
62555;DHT22;48610;52.144;8.624;2023-04-06T09:30:10;10.80;88.10
62555;DHT22;48610;52.144;8.624;2023-04-06T09:33:22;10.80;89.60
62555;DHT22;48610;52.144;8.624;2023-04-06T09:36:35;11.20;84.50
62555;DHT22;48610;52.144;8.624;2023-04-06T09:39:38;11.50;85.50
62555;DHT22;48610;52.144;8.624;2023-04-06T09:42:42;11.60;85.90
62555;DHT22;48610;52.144;8.624;2023-04-06T09:45:43;11.80;86.30
62555;DHT22;48610;52.144;8.624;2023-04-06T09:48:44;11.60;88.40
62555;DHT22;48610;52.144;8.624;2023-04-06T09:51:46;11.50;80.70
62555;DHT22;48610;52.144;8.624;2023-04-06T09:54:50;11.70;84.60
62555;DHT22;48610;52.144;8.624;2023-04-06T09:57:57;11.90;84.10
62555;DHT22;48610;52.144;8.624;2023-04-06T10:01:15;12.30;82.50
62555;DHT22;48610;52.144;8.624;2023-04-06T10:04:36;12.60;85.70
62555;DHT22;48610;52.144;8.624;2023-04-06T10:07:39;12.60;85.90
62555;DHT22;48610;52.144;8.624;2023-04-06T10:10:40;12.80;79.10
62555;DHT22;48610;52.144;8.624;2023-04-06T10:13:41;12.50;76.10
62555;DHT22;48610;52.144;8.624;2023-04-06T10:16:43;12.70;80.80
62555;DHT22;48610;52.144;8.624;2023-04-06T10:20:06;12.60;76.40
62555;DHT22;48610;52.144;8.624;2023-04-06T10:23:13;12.60;74.00
62555;DHT22;48610;52.144;8.624;2023-04-06T10:26:19;13.00;74.30
62555;DHT22;48610;52.144;8.624;2023-04-06T10:29:21;13.60;80.40
62555;DHT22;48610;52.144;8.624;2023-04-06T10:32:32;13.50;75.50
62555;DHT22;48610;52.144;8.624;2023-04-06T10:35:38;13.40;74.20
62555;DHT22;48610;52.144;8.624;2023-04-06T10:38:41;13.80;77.50
62555;DHT22;48610;52.144;8.624;2023-04-06T10:41:43;13.90;67.70
62555;DHT22;48610;52.144;8.624;2023-04-06T10:44:45;14.20;73.80
62555;DHT22;48610;52.144;8.624;2023-04-06T10:47:52;14.40;66.60
62555;DHT22;48610;52.144;8.624;2023-04-06T10:50:53;13.80;65.70
62555;DHT22;48610;52.144;8.624;2023-04-06T10:53:54;13.90;66.70
62555;DHT22;48610;52.144;8.624;2023-04-06T10:56:55;14.00;66.50
62555;DHT22;48610;52.144;8.624;2023-04-06T10:59:56;14.00;65.40
62555;DHT22;48610;52.144;8.624;2023-04-06T11:03:00;14.30;69.20
62555;DHT22;48610;52.144;8.624;2023-04-06T11:06:03;14.40;63.50
62555;DHT22;48610;52.144;8.624;2023-04-06T11:09:04;14.70;64.90
62555;DHT22;48610;52.144;8.624;2023-04-06T11:12:05;14.30;64.80
62555;DHT22;48610;52.144;8.624;2023-04-06T11:15:06;14.10;65.70
62555;DHT22;48610;52.144;8.624;2023-04-06T11:18:07;14.50;65.80
62555;DHT22;48610;52.144;8.624;2023-04-06T11:21:07;14.70;64.60
62555;DHT22;48610;52.144;8.624;2023-04-06T11:27:12;14.10;67.40
62555;DHT22;48610;52.144;8.624;2023-04-06T11:30:15;14.20;67.00
62555;DHT22;48610;52.144;8.624;2023-04-06T11:33:22;14.60;71.60
62555;DHT22;48610;52.144;8.624;2023-04-06T11:36:23;14.60;66.90
62555;DHT22;48610;52.144;8.624;2023-04-06T11:39:25;14.70;63.60
62555;DHT22;48610;52.144;8.624;2023-04-06T11:42:29;14.50;66.50
62555;DHT22;48610;52.144;8.624;2023-04-06T11:45:41;14.50;64.30
62555;DHT22;48610;52.144;8.624;2023-04-06T11:48:46;14.60;69.80
62555;DHT22;48610;52.144;8.624;2023-04-06T11:51:46;15.00;62.80
62555;DHT22;48610;52.144;8.624;2023-04-06T11:54:48;15.00;62.50
62555;DHT22;48610;52.144;8.624;2023-04-06T11:57:49;15.70;63.00
62555;DHT22;48610;52.144;8.624;2023-04-06T12:00:50;15.70;61.80
62555;DHT22;48610;52.144;8.624;2023-04-06T12:03:51;15.00;65.00
62555;DHT22;48610;52.144;8.624;2023-04-06T12:06:52;15.10;62.50
62555;DHT22;48610;52.144;8.624;2023-04-06T12:09:52;15.00;68.00
62555;DHT22;48610;52.144;8.624;2023-04-06T12:12:53;15.30;63.20
62555;DHT22;48610;52.144;8.624;2023-04-06T12:15:53;15.40;61.10
62555;DHT22;48610;52.144;8.624;2023-04-06T12:18:54;15.40;59.10
62555;DHT22;48610;52.144;8.624;2023-04-06T12:21:57;15.00;65.70
62555;DHT22;48610;52.144;8.624;2023-04-06T12:24:57;15.40;61.60
62555;DHT22;48610;52.144;8.624;2023-04-06T12:27:58;15.30;62.60
62555;DHT22;48610;52.144;8.624;2023-04-06T12:30:59;15.40;65.90
62555;DHT22;48610;52.144;8.624;2023-04-06T12:34:00;15.20;60.80
62555;DHT22;48610;52.144;8.624;2023-04-06T12:37:02;15.60;61.40
62555;DHT22;48610;52.144;8.624;2023-04-06T12:40:03;16.30;61.90
62555;DHT22;48610;52.144;8.624;2023-04-06T12:43:04;16.40;55.50
62555;DHT22;48610;52.144;8.624;2023-04-06T12:46:05;15.60;55.20
62555;DHT22;48610;52.144;8.624;2023-04-06T12:49:06;15.40;60.10
62555;DHT22;48610;52.144;8.624;2023-04-06T12:52:06;16.10;52.50
62555;DHT22;48610;52.144;8.624;2023-04-06T12:55:07;15.60;52.00
62555;DHT22;48610;52.144;8.624;2023-04-06T12:58:08;15.60;56.50
62555;DHT22;48610;52.144;8.624;2023-04-06T13:01:09;15.80;54.40
62555;DHT22;48610;52.144;8.624;2023-04-06T13:04:10;15.70;59.10
62555;DHT22;48610;52.144;8.624;2023-04-06T13:07:10;15.40;52.50
62555;DHT22;48610;52.144;8.624;2023-04-06T13:10:11;15.20;57.20
62555;DHT22;48610;52.144;8.624;2023-04-06T13:13:11;15.00;54.80
62555;DHT22;48610;52.144;8.624;2023-04-06T13:16:12;15.20;52.20
62555;DHT22;48610;52.144;8.624;2023-04-06T13:19:13;14.70;53.20
62555;DHT22;48610;52.144;8.624;2023-04-06T13:22:13;14.80;55.70
62555;DHT22;48610;52.144;8.624;2023-04-06T13:25:14;15.10;53.60
62555;DHT22;48610;52.144;8.624;2023-04-06T13:28:15;15.30;56.90
62555;DHT22;48610;52.144;8.624;2023-04-06T13:31:15;15.10;53.60
62555;DHT22;48610;52.144;8.624;2023-04-06T13:34:16;15.10;55.50
62555;DHT22;48610;52.144;8.624;2023-04-06T13:37:16;14.90;53.50
62555;DHT22;48610;52.144;8.624;2023-04-06T13:40:17;15.00;53.00
62555;DHT22;48610;52.144;8.624;2023-04-06T13:43:18;15.30;53.30
62555;DHT22;48610;52.144;8.624;2023-04-06T13:46:20;15.50;54.70
62555;DHT22;48610;52.144;8.624;2023-04-06T13:49:21;15.30;51.80
62555;DHT22;48610;52.144;8.624;2023-04-06T13:52:22;15.20;53.70
62555;DHT22;48610;52.144;8.624;2023-04-06T13:55:22;15.40;54.80
62555;DHT22;48610;52.144;8.624;2023-04-06T13:58:26;15.60;50.50
62555;DHT22;48610;52.144;8.624;2023-04-06T14:01:27;15.50;54.60
62555;DHT22;48610;52.144;8.624;2023-04-06T14:04:28;14.80;57.30
62555;DHT22;48610;52.144;8.624;2023-04-06T14:07:28;14.90;56.20
62555;DHT22;48610;52.144;8.624;2023-04-06T14:10:29;15.00;57.00
62555;DHT22;48610;52.144;8.624;2023-04-06T14:13:29;15.10;54.50
62555;DHT22;48610;52.144;8.624;2023-04-06T14:16:30;14.90;55.00
62555;DHT22;48610;52.144;8.624;2023-04-06T14:19:31;15.10;58.50
62555;DHT22;48610;52.144;8.624;2023-04-06T14:22:32;15.30;53.90
62555;DHT22;48610;52.144;8.624;2023-04-06T14:25:33;15.20;53.50
62555;DHT22;48610;52.144;8.624;2023-04-06T14:28:35;15.10;52.10
62555;DHT22;48610;52.144;8.624;2023-04-06T14:31:36;15.00;53.60
62555;DHT22;48610;52.144;8.624;2023-04-06T14:34:37;14.50;56.30
62555;DHT22;48610;52.144;8.624;2023-04-06T14:37:38;14.70;56.50
62555;DHT22;48610;52.144;8.624;2023-04-06T14:40:38;14.60;52.20
62555;DHT22;48610;52.144;8.624;2023-04-06T14:43:39;14.40;53.30
62555;DHT22;48610;52.144;8.624;2023-04-06T14:46:40;14.10;57.20
62555;DHT22;48610;52.144;8.624;2023-04-06T14:49:40;14.00;55.80
62555;DHT22;48610;52.144;8.624;2023-04-06T14:52:41;14.10;55.80
62555;DHT22;48610;52.144;8.624;2023-04-06T14:55:41;14.00;58.30
62555;DHT22;48610;52.144;8.624;2023-04-06T14:58:42;14.20;59.40
62555;DHT22;48610;52.144;8.624;2023-04-06T15:01:43;14.30;59.30
62555;DHT22;48610;52.144;8.624;2023-04-06T15:04:43;14.50;55.20
62555;DHT22;48610;52.144;8.624;2023-04-06T15:07:44;14.40;56.30
62555;DHT22;48610;52.144;8.624;2023-04-06T15:10:44;14.50;58.10
62555;DHT22;48610;52.144;8.624;2023-04-06T15:13:45;14.20;57.80
62555;DHT22;48610;52.144;8.624;2023-04-06T15:16:46;14.10;59.20
62555;DHT22;48610;52.144;8.624;2023-04-06T15:19:46;14.20;56.40
62555;DHT22;48610;52.144;8.624;2023-04-06T15:22:47;14.20;61.10
62555;DHT22;48610;52.144;8.624;2023-04-06T15:25:47;14.30;57.80
62555;DHT22;48610;52.144;8.624;2023-04-06T15:28:48;14.20;56.70
62555;DHT22;48610;52.144;8.624;2023-04-06T15:31:48;13.90;57.80
62555;DHT22;48610;52.144;8.624;2023-04-06T15:34:49;14.10;57.80
62555;DHT22;48610;52.144;8.624;2023-04-06T15:37:51;14.00;57.90
62555;DHT22;48610;52.144;8.624;2023-04-06T15:40:52;14.10;61.60
62555;DHT22;48610;52.144;8.624;2023-04-06T15:43:53;14.40;58.30
62555;DHT22;48610;52.144;8.624;2023-04-06T15:46:53;14.70;57.20
62555;DHT22;48610;52.144;8.624;2023-04-06T15:49:54;14.70;60.20
62555;DHT22;48610;52.144;8.624;2023-04-06T15:52:55;14.30;59.50
62555;DHT22;48610;52.144;8.624;2023-04-06T15:56:00;14.10;61.50
62555;DHT22;48610;52.144;8.624;2023-04-06T15:59:01;14.20;64.80
62555;DHT22;48610;52.144;8.624;2023-04-06T16:02:03;14.00;60.40
62555;DHT22;48610;52.144;8.624;2023-04-06T16:05:04;13.80;64.80
62555;DHT22;48610;52.144;8.624;2023-04-06T16:08:04;14.00;57.10
62555;DHT22;48610;52.144;8.624;2023-04-06T16:11:06;14.20;58.10
62555;DHT22;48610;52.144;8.624;2023-04-06T16:14:07;14.30;55.90
62555;DHT22;48610;52.144;8.624;2023-04-06T16:17:07;14.00;58.50
62555;DHT22;48610;52.144;8.624;2023-04-06T16:20:08;14.10;57.00
62555;DHT22;48610;52.144;8.624;2023-04-06T16:23:09;14.20;55.70
62555;DHT22;48610;52.144;8.624;2023-04-06T16:26:15;14.50;55.90
62555;DHT22;48610;52.144;8.624;2023-04-06T16:29:17;14.20;63.60
62555;DHT22;48610;52.144;8.624;2023-04-06T16:32:17;14.30;59.90
62555;DHT22;48610;52.144;8.624;2023-04-06T16:35:18;14.20;60.90
62555;DHT22;48610;52.144;8.624;2023-04-06T16:38:19;14.30;60.10
62555;DHT22;48610;52.144;8.624;2023-04-06T16:41:22;14.30;58.50
62555;DHT22;48610;52.144;8.624;2023-04-06T16:44:23;14.40;59.00
62555;DHT22;48610;52.144;8.624;2023-04-06T16:47:24;14.30;59.00
62555;DHT22;48610;52.144;8.624;2023-04-06T16:50:24;14.20;58.60
62555;DHT22;48610;52.144;8.624;2023-04-06T16:53:25;14.00;58.70
62555;DHT22;48610;52.144;8.624;2023-04-06T16:56:26;13.80;58.70
62555;DHT22;48610;52.144;8.624;2023-04-06T16:59:27;13.70;60.60
62555;DHT22;48610;52.144;8.624;2023-04-06T17:02:28;13.60;62.30
62555;DHT22;48610;52.144;8.624;2023-04-06T17:05:28;13.60;61.20
62555;DHT22;48610;52.144;8.624;2023-04-06T17:08:30;13.40;62.00
62555;DHT22;48610;52.144;8.624;2023-04-06T17:11:30;13.60;61.70
62555;DHT22;48610;52.144;8.624;2023-04-06T17:14:31;13.80;60.60
62555;DHT22;48610;52.144;8.624;2023-04-06T17:17:31;13.90;59.60
62555;DHT22;48610;52.144;8.624;2023-04-06T17:20:32;14.00;59.60
62555;DHT22;48610;52.144;8.624;2023-04-06T17:23:34;14.00;58.20
62555;DHT22;48610;52.144;8.624;2023-04-06T17:26:35;14.10;58.90
62555;DHT22;48610;52.144;8.624;2023-04-06T17:29:36;14.20;58.80
62555;DHT22;48610;52.144;8.624;2023-04-06T17:32:36;14.10;58.70
62555;DHT22;48610;52.144;8.624;2023-04-06T17:35:37;14.20;58.60
62555;DHT22;48610;52.144;8.624;2023-04-06T17:38:38;14.20;58.40
62555;DHT22;48610;52.144;8.624;2023-04-06T17:41:42;13.90;58.80
62555;DHT22;48610;52.144;8.624;2023-04-06T17:44:43;13.90;59.10
62555;DHT22;48610;52.144;8.624;2023-04-06T17:47:46;13.80;59.40
62555;DHT22;48610;52.144;8.624;2023-04-06T17:50:47;13.80;59.50
62555;DHT22;48610;52.144;8.624;2023-04-06T17:53:47;13.80;59.20
62555;DHT22;48610;52.144;8.624;2023-04-06T17:56:48;13.80;60.00
62555;DHT22;48610;52.144;8.624;2023-04-06T17:59:50;13.80;61.40
62555;DHT22;48610;52.144;8.624;2023-04-06T18:02:53;13.40;64.00
62555;DHT22;48610;52.144;8.624;2023-04-06T18:05:54;13.30;66.00
62555;DHT22;48610;52.144;8.624;2023-04-06T18:08:58;12.90;67.90
62555;DHT22;48610;52.144;8.624;2023-04-06T18:11:58;12.70;70.70
62555;DHT22;48610;52.144;8.624;2023-04-06T18:14:59;12.70;72.10
62555;DHT22;48610;52.144;8.624;2023-04-06T18:18:00;12.70;73.80
62555;DHT22;48610;52.144;8.624;2023-04-06T18:21:06;12.50;74.60
62555;DHT22;48610;52.144;8.624;2023-04-06T18:24:07;12.50;74.20
62555;DHT22;48610;52.144;8.624;2023-04-06T18:27:08;12.70;74.10
62555;DHT22;48610;52.144;8.624;2023-04-06T18:30:10;13.00;73.60
62555;DHT22;48610;52.144;8.624;2023-04-06T18:33:12;13.20;73.80
62555;DHT22;48610;52.144;8.624;2023-04-06T18:36:13;12.90;74.60
62555;DHT22;48610;52.144;8.624;2023-04-06T18:39:13;12.80;75.50
62555;DHT22;48610;52.144;8.624;2023-04-06T18:42:14;12.90;75.50
62555;DHT22;48610;52.144;8.624;2023-04-06T18:45:15;12.80;75.60
62555;DHT22;48610;52.144;8.624;2023-04-06T18:48:16;12.80;75.90
62555;DHT22;48610;52.144;8.624;2023-04-06T18:51:16;12.70;76.60
62555;DHT22;48610;52.144;8.624;2023-04-06T18:54:17;12.50;77.10
62555;DHT22;48610;52.144;8.624;2023-04-06T18:57:17;12.50;77.80
62555;DHT22;48610;52.144;8.624;2023-04-06T19:00:18;12.50;77.30
62555;DHT22;48610;52.144;8.624;2023-04-06T19:03:19;12.60;76.90
62555;DHT22;48610;52.144;8.624;2023-04-06T19:06:20;12.60;76.50
62555;DHT22;48610;52.144;8.624;2023-04-06T19:09:20;12.70;76.20
62555;DHT22;48610;52.144;8.624;2023-04-06T19:12:21;12.80;77.70
62555;DHT22;48610;52.144;8.624;2023-04-06T19:15:22;12.70;77.90
62555;DHT22;48610;52.144;8.624;2023-04-06T19:18:22;12.60;80.00
62555;DHT22;48610;52.144;8.624;2023-04-06T19:21:24;12.30;81.30
62555;DHT22;48610;52.144;8.624;2023-04-06T19:24:25;12.40;82.30
62555;DHT22;48610;52.144;8.624;2023-04-06T19:27:26;12.40;81.70
62555;DHT22;48610;52.144;8.624;2023-04-06T19:30:26;12.40;82.70
62555;DHT22;48610;52.144;8.624;2023-04-06T19:33:27;12.30;82.60
62555;DHT22;48610;52.144;8.624;2023-04-06T19:36:28;12.10;82.30
62555;DHT22;48610;52.144;8.624;2023-04-06T19:39:28;11.90;82.70
62555;DHT22;48610;52.144;8.624;2023-04-06T19:42:29;11.70;86.00
62555;DHT22;48610;52.144;8.624;2023-04-06T19:45:31;11.60;86.90
62555;DHT22;48610;52.144;8.624;2023-04-06T19:48:31;11.80;86.80
62555;DHT22;48610;52.144;8.624;2023-04-06T19:51:33;11.70;87.70
62555;DHT22;48610;52.144;8.624;2023-04-06T19:54:34;11.70;88.20
62555;DHT22;48610;52.144;8.624;2023-04-06T19:57:35;11.70;88.90
62555;DHT22;48610;52.144;8.624;2023-04-06T20:00:35;11.60;88.80
62555;DHT22;48610;52.144;8.624;2023-04-06T20:03:36;11.50;90.80
62555;DHT22;48610;52.144;8.624;2023-04-06T20:06:37;11.30;92.00
62555;DHT22;48610;52.144;8.624;2023-04-06T20:09:37;11.10;93.30
62555;DHT22;48610;52.144;8.624;2023-04-06T20:12:40;11.00;94.20
62555;DHT22;48610;52.144;8.624;2023-04-06T20:15:41;11.00;95.10
62555;DHT22;48610;52.144;8.624;2023-04-06T20:18:42;11.00;96.10
62555;DHT22;48610;52.144;8.624;2023-04-06T20:21:42;10.90;96.50
62555;DHT22;48610;52.144;8.624;2023-04-06T20:24:43;10.80;97.00
62555;DHT22;48610;52.144;8.624;2023-04-06T20:27:43;10.90;97.80
62555;DHT22;48610;52.144;8.624;2023-04-06T20:30:44;11.20;97.00
62555;DHT22;48610;52.144;8.624;2023-04-06T20:33:49;11.10;98.00
62555;DHT22;48610;52.144;8.624;2023-04-06T20:36:50;11.10;97.80
62555;DHT22;48610;52.144;8.624;2023-04-06T20:39:51;11.10;98.40
62555;DHT22;48610;52.144;8.624;2023-04-06T20:42:53;11.10;98.10